sensor_id;sensor_type;location;lat;lon;timestamp;temperature;humidity
53282;DHT22;39167;52.794;6.892;2023-04-03T00:01:33;3.40;99.90
53282;DHT22;39167;52.794;6.892;2023-04-03T00:03:58;3.20;99.90
53282;DHT22;39167;52.794;6.892;2023-04-03T00:06:25;3.90;99.90
53282;DHT22;39167;52.794;6.892;2023-04-03T00:08:52;3.90;99.90
53282;DHT22;39167;52.794;6.892;2023-04-03T00:11:18;4.00;99.90
53282;DHT22;39167;52.794;6.892;2023-04-03T00:13:44;3.10;99.90
53282;DHT22;39167;52.794;6.892;2023-04-03T00:16:11;3.00;99.90
53282;DHT22;39167;52.794;6.892;2023-04-03T00:18:38;3.00;99.90
53282;DHT22;39167;52.794;6.892;2023-04-03T00:21:04;2.90;99.90
53282;DHT22;39167;52.794;6.892;2023-04-03T00:23:31;2.90;99.90
53282;DHT22;39167;52.794;6.892;2023-04-03T00:25:56;3.20;99.90
53282;DHT22;39167;52.794;6.892;2023-04-03T00:28:22;2.90;99.90
53282;DHT22;39167;52.794;6.892;2023-04-03T00:30:49;4.20;99.90
53282;DHT22;39167;52.794;6.892;2023-04-03T00:33:15;2.80;99.90
53282;DHT22;39167;52.794;6.892;2023-04-03T00:35:41;2.80;99.90
53282;DHT22;39167;52.794;6.892;2023-04-03T00:38:07;2.70;99.90
53282;DHT22;39167;52.794;6.892;2023-04-03T00:40:35;2.70;99.90
53282;DHT22;39167;52.794;6.892;2023-04-03T00:43:01;2.60;99.90
53282;DHT22;39167;52.794;6.892;2023-04-03T00:45:38;4.10;99.90
53282;DHT22;39167;52.794;6.892;2023-04-03T00:48:06;2.60;99.90
53282;DHT22;39167;52.794;6.892;2023-04-03T00:50:35;3.50;99.90
53282;DHT22;39167;52.794;6.892;2023-04-03T00:53:03;3.60;99.90
53282;DHT22;39167;52.794;6.892;2023-04-03T00:55:30;2.50;99.90
53282;DHT22;39167;52.794;6.892;2023-04-03T00:57:57;2.60;99.90
53282;DHT22;39167;52.794;6.892;2023-04-03T01:00:24;3.40;99.90
53282;DHT22;39167;52.794;6.892;2023-04-03T01:02:51;3.60;99.90
53282;DHT22;39167;52.794;6.892;2023-04-03T01:05:18;2.50;99.90
53282;DHT22;39167;52.794;6.892;2023-04-03T01:07:45;2.50;99.90
53282;DHT22;39167;52.794;6.892;2023-04-03T01:10:14;3.40;99.90
53282;DHT22;39167;52.794;6.892;2023-04-03T01:12:43;2.30;99.90
53282;DHT22;39167;52.794;6.892;2023-04-03T01:15:12;2.30;99.90
53282;DHT22;39167;52.794;6.892;2023-04-03T01:25:23;2.20;99.90
53282;DHT22;39167;52.794;6.892;2023-04-03T01:27:48;3.20;99.90
53282;DHT22;39167;52.794;6.892;2023-04-03T01:30:17;2.20;99.90
53282;DHT22;39167;52.794;6.892;2023-04-03T01:32:43;3.40;99.90
53282;DHT22;39167;52.794;6.892;2023-04-03T01:35:10;2.80;99.90
53282;DHT22;39167;52.794;6.892;2023-04-03T01:37:36;3.50;99.90
53282;DHT22;39167;52.794;6.892;2023-04-03T01:40:03;3.10;99.90
53282;DHT22;39167;52.794;6.892;2023-04-03T01:42:28;2.00;99.90
53282;DHT22;39167;52.794;6.892;2023-04-03T01:44:55;3.30;99.90
53282;DHT22;39167;52.794;6.892;2023-04-03T01:47:21;2.00;99.90
53282;DHT22;39167;52.794;6.892;2023-04-03T01:49:47;2.00;99.90
53282;DHT22;39167;52.794;6.892;2023-04-03T01:52:13;2.70;99.90
53282;DHT22;39167;52.794;6.892;2023-04-03T01:54:39;2.00;99.90
53282;DHT22;39167;52.794;6.892;2023-04-03T01:57:05;2.00;99.90
53282;DHT22;39167;52.794;6.892;2023-04-03T01:59:30;2.40;99.90
53282;DHT22;39167;52.794;6.892;2023-04-03T02:01:56;2.20;99.90
53282;DHT22;39167;52.794;6.892;2023-04-03T02:04:22;1.90;99.90
53282;DHT22;39167;52.794;6.892;2023-04-03T02:06:48;1.80;99.90
53282;DHT22;39167;52.794;6.892;2023-04-03T02:09:14;3.10;99.90
53282;DHT22;39167;52.794;6.892;2023-04-03T02:11:40;2.30;99.90
53282;DHT22;39167;52.794;6.892;2023-04-03T02:14:06;2.80;99.90
53282;DHT22;39167;52.794;6.892;2023-04-03T02:16:31;1.70;99.90
53282;DHT22;39167;52.794;6.892;2023-04-03T02:18:57;1.90;99.90
53282;DHT22;39167;52.794;6.892;2023-04-03T02:21:23;2.20;99.90
53282;DHT22;39167;52.794;6.892;2023-04-03T02:23:49;1.70;99.90
53282;DHT22;39167;52.794;6.892;2023-04-03T02:26:16;1.70;99.90
53282;DHT22;39167;52.794;6.892;2023-04-03T02:28:42;2.00;99.90
53282;DHT22;39167;52.794;6.892;2023-04-03T02:31:08;1.70;99.90
53282;DHT22;39167;52.794;6.892;2023-04-03T02:33:35;2.40;99.90
53282;DHT22;39167;52.794;6.892;2023-04-03T02:36:03;3.30;99.90
53282;DHT22;39167;52.794;6.892;2023-04-03T02:38:29;1.70;99.90
53282;DHT22;39167;52.794;6.892;2023-04-03T02:41:02;2.70;99.90
53282;DHT22;39167;52.794;6.892;2023-04-03T02:43:28;2.90;99.90
53282;DHT22;39167;52.794;6.892;2023-04-03T02:45:54;1.60;99.90
53282;DHT22;39167;52.794;6.892;2023-04-03T02:48:20;2.30;99.90
53282;DHT22;39167;52.794;6.892;2023-04-03T02:50:45;1.60;99.90
53282;DHT22;39167;52.794;6.892;2023-04-03T02:53:11;3.10;99.90
53282;DHT22;39167;52.794;6.892;2023-04-03T02:55:37;1.60;99.90
53282;DHT22;39167;52.794;6.892;2023-04-03T02:58:02;2.70;99.90
53282;DHT22;39167;52.794;6.892;2023-04-03T03:00:29;2.40;99.90
53282;DHT22;39167;52.794;6.892;2023-04-03T03:02:55;1.80;99.90
53282;DHT22;39167;52.794;6.892;2023-04-03T03:05:21;2.70;99.90
53282;DHT22;39167;52.794;6.892;2023-04-03T03:07:47;3.10;99.90
53282;DHT22;39167;52.794;6.892;2023-04-03T03:10:13;3.00;99.90
53282;DHT22;39167;52.794;6.892;2023-04-03T03:12:39;2.70;99.90
53282;DHT22;39167;52.794;6.892;2023-04-03T03:15:06;1.70;99.90
53282;DHT22;39167;52.794;6.892;2023-04-03T03:17:32;1.60;99.90
53282;DHT22;39167;52.794;6.892;2023-04-03T03:19:58;1.60;99.90
53282;DHT22;39167;52.794;6.892;2023-04-03T03:22:25;3.00;99.90
53282;DHT22;39167;52.794;6.892;2023-04-03T03:24:51;2.10;99.90
53282;DHT22;39167;52.794;6.892;2023-04-03T03:27:17;2.80;99.90
53282;DHT22;39167;52.794;6.892;2023-04-03T03:29:42;0.50;99.90
53282;DHT22;39167;52.794;6.892;2023-04-03T03:32:08;1.60;99.90
53282;DHT22;39167;52.794;6.892;2023-04-03T03:34:34;3.20;99.90
53282;DHT22;39167;52.794;6.892;2023-04-03T03:37:00;1.50;99.90
53282;DHT22;39167;52.794;6.892;2023-04-03T03:39:26;3.00;99.90
53282;DHT22;39167;52.794;6.892;2023-04-03T03:41:52;2.80;99.90
53282;DHT22;39167;52.794;6.892;2023-04-03T03:44:19;1.40;99.90
53282;DHT22;39167;52.794;6.892;2023-04-03T03:46:45;2.50;99.90
53282;DHT22;39167;52.794;6.892;2023-04-03T03:49:11;2.30;99.90
53282;DHT22;39167;52.794;6.892;2023-04-03T03:51:37;2.50;99.90
53282;DHT22;39167;52.794;6.892;2023-04-03T03:54:03;2.80;99.90
53282;DHT22;39167;52.794;6.892;2023-04-03T03:56:29;1.30;99.90
53282;DHT22;39167;52.794;6.892;2023-04-03T03:58:55;2.10;99.90
53282;DHT22;39167;52.794;6.892;2023-04-03T04:01:25;2.20;99.90
53282;DHT22;39167;52.794;6.892;2023-04-03T04:03:50;1.20;99.90
53282;DHT22;39167;52.794;6.892;2023-04-03T04:06:16;1.50;99.90
53282;DHT22;39167;52.794;6.892;2023-04-03T04:08:42;2.40;99.90
53282;DHT22;39167;52.794;6.892;2023-04-03T04:11:09;2.80;99.90
53282;DHT22;39167;52.794;6.892;2023-04-03T04:13:35;2.60;99.90
53282;DHT22;39167;52.794;6.892;2023-04-03T04:16:01;1.10;99.90
53282;DHT22;39167;52.794;6.892;2023-04-03T04:18:27;2.40;99.90
53282;DHT22;39167;52.794;6.892;2023-04-03T04:20:52;2.20;99.90
53282;DHT22;39167;52.794;6.892;2023-04-03T04:23:19;1.70;99.90
53282;DHT22;39167;52.794;6.892;2023-04-03T04:25:48;2.00;99.90
53282;DHT22;39167;52.794;6.892;2023-04-03T04:28:17;2.00;99.90
53282;DHT22;39167;52.794;6.892;2023-04-03T04:30:43;0.90;99.90
53282;DHT22;39167;52.794;6.892;2023-04-03T04:33:11;1.70;99.90
53282;DHT22;39167;52.794;6.892;2023-04-03T04:35:41;1.40;99.90
53282;DHT22;39167;52.794;6.892;2023-04-03T04:38:07;1.70;99.90
53282;DHT22;39167;52.794;6.892;2023-04-03T04:40:34;0.80;99.90
53282;DHT22;39167;52.794;6.892;2023-04-03T04:43:00;1.90;99.90
53282;DHT22;39167;52.794;6.892;2023-04-03T04:45:25;0.80;99.90
53282;DHT22;39167;52.794;6.892;2023-04-03T04:47:51;0.70;99.90
53282;DHT22;39167;52.794;6.892;2023-04-03T04:50:18;2.40;99.90
53282;DHT22;39167;52.794;6.892;2023-04-03T04:52:44;2.20;99.90
53282;DHT22;39167;52.794;6.892;2023-04-03T04:55:09;2.00;99.90
53282;DHT22;39167;52.794;6.892;2023-04-03T04:57:35;0.90;99.90
53282;DHT22;39167;52.794;6.892;2023-04-03T05:00:03;0.60;99.90
53282;DHT22;39167;52.794;6.892;2023-04-03T05:02:28;0.60;99.90
53282;DHT22;39167;52.794;6.892;2023-04-03T05:04:54;2.00;99.90
53282;DHT22;39167;52.794;6.892;2023-04-03T05:07:20;2.10;99.90
53282;DHT22;39167;52.794;6.892;2023-04-03T05:09:46;0.60;99.90
53282;DHT22;39167;52.794;6.892;2023-04-03T05:12:11;0.60;99.90
53282;DHT22;39167;52.794;6.892;2023-04-03T05:14:37;0.60;99.90
53282;DHT22;39167;52.794;6.892;2023-04-03T05:17:03;1.40;99.90
53282;DHT22;39167;52.794;6.892;2023-04-03T05:19:28;0.60;99.90
53282;DHT22;39167;52.794;6.892;2023-04-03T05:21:54;1.20;99.90
53282;DHT22;39167;52.794;6.892;2023-04-03T05:24:20;0.50;99.90
53282;DHT22;39167;52.794;6.892;2023-04-03T05:26:46;0.50;99.90
53282;DHT22;39167;52.794;6.892;2023-04-03T05:29:11;0.50;99.90
53282;DHT22;39167;52.794;6.892;2023-04-03T05:31:37;0.50;99.90
53282;DHT22;39167;52.794;6.892;2023-04-03T05:34:03;2.30;99.90
53282;DHT22;39167;52.794;6.892;2023-04-03T05:36:29;1.40;99.90
53282;DHT22;39167;52.794;6.892;2023-04-03T05:38:54;1.10;99.90
53282;DHT22;39167;52.794;6.892;2023-04-03T05:41:21;0.40;99.90
53282;DHT22;39167;52.794;6.892;2023-04-03T05:43:47;0.50;99.90
53282;DHT22;39167;52.794;6.892;2023-04-03T05:46:18;2.10;99.90
53282;DHT22;39167;52.794;6.892;2023-04-03T05:48:44;1.70;99.90
53282;DHT22;39167;52.794;6.892;2023-04-03T05:51:24;1.40;99.90
53282;DHT22;39167;52.794;6.892;2023-04-03T05:53:56;0.60;99.90
53282;DHT22;39167;52.794;6.892;2023-04-03T05:56:25;1.10;99.90
53282;DHT22;39167;52.794;6.892;2023-04-03T05:58:50;0.50;99.90
53282;DHT22;39167;52.794;6.892;2023-04-03T06:01:16;0.50;99.90
53282;DHT22;39167;52.794;6.892;2023-04-03T06:03:42;0.50;99.90
53282;DHT22;39167;52.794;6.892;2023-04-03T06:06:10;2.20;99.90
53282;DHT22;39167;52.794;6.892;2023-04-03T06:08:37;0.50;99.90
53282;DHT22;39167;52.794;6.892;2023-04-03T06:11:03;0.60;99.90
53282;DHT22;39167;52.794;6.892;2023-04-03T06:13:29;0.60;99.90
53282;DHT22;39167;52.794;6.892;2023-04-03T06:15:55;2.10;99.90
53282;DHT22;39167;52.794;6.892;2023-04-03T06:18:21;1.70;99.90
53282;DHT22;39167;52.794;6.892;2023-04-03T06:20:47;0.80;99.90
53282;DHT22;39167;52.794;6.892;2023-04-03T06:23:13;0.70;99.90
53282;DHT22;39167;52.794;6.892;2023-04-03T06:25:38;1.50;99.90
53282;DHT22;39167;52.794;6.892;2023-04-03T06:28:05;0.80;99.90
53282;DHT22;39167;52.794;6.892;2023-04-03T06:30:31;0.70;99.90
53282;DHT22;39167;52.794;6.892;2023-04-03T06:32:56;1.80;99.90
53282;DHT22;39167;52.794;6.892;2023-04-03T06:35:22;0.80;99.90
53282;DHT22;39167;52.794;6.892;2023-04-03T06:37:49;2.30;99.90
53282;DHT22;39167;52.794;6.892;2023-04-03T06:40:22;2.10;99.90
53282;DHT22;39167;52.794;6.892;2023-04-03T06:42:48;1.80;99.90
53282;DHT22;39167;52.794;6.892;2023-04-03T06:45:14;2.10;99.90
53282;DHT22;39167;52.794;6.892;2023-04-03T06:47:40;1.50;99.90
53282;DHT22;39167;52.794;6.892;2023-04-03T06:50:06;1.10;99.90
53282;DHT22;39167;52.794;6.892;2023-04-03T06:52:32;1.10;99.90
53282;DHT22;39167;52.794;6.892;2023-04-03T06:54:58;1.40;99.90
53282;DHT22;39167;52.794;6.892;2023-04-03T06:57:25;1.20;99.90
53282;DHT22;39167;52.794;6.892;2023-04-03T06:59:53;1.20;99.90
53282;DHT22;39167;52.794;6.892;2023-04-03T07:02:19;2.00;99.90
53282;DHT22;39167;52.794;6.892;2023-04-03T07:04:46;1.30;99.90
53282;DHT22;39167;52.794;6.892;2023-04-03T07:07:12;1.30;99.90
53282;DHT22;39167;52.794;6.892;2023-04-03T07:09:38;2.90;99.90
53282;DHT22;39167;52.794;6.892;2023-04-03T07:12:03;2.90;99.90
53282;DHT22;39167;52.794;6.892;2023-04-03T07:14:29;1.50;99.90
53282;DHT22;39167;52.794;6.892;2023-04-03T07:16:55;2.20;99.90
53282;DHT22;39167;52.794;6.892;2023-04-03T07:19:22;1.50;99.90
53282;DHT22;39167;52.794;6.892;2023-04-03T07:21:52;1.60;99.90
53282;DHT22;39167;52.794;6.892;2023-04-03T07:24:18;2.70;99.90
53282;DHT22;39167;52.794;6.892;2023-04-03T07:26:44;2.60;99.90
53282;DHT22;39167;52.794;6.892;2023-04-03T07:29:10;1.70;99.90
53282;DHT22;39167;52.794;6.892;2023-04-03T07:31:36;2.50;99.90
53282;DHT22;39167;52.794;6.892;2023-04-03T07:34:04;2.70;99.90
53282;DHT22;39167;52.794;6.892;2023-04-03T07:36:29;3.00;99.90
53282;DHT22;39167;52.794;6.892;2023-04-03T07:38:58;3.30;99.90
53282;DHT22;39167;52.794;6.892;2023-04-03T07:41:24;3.40;99.90
53282;DHT22;39167;52.794;6.892;2023-04-03T07:43:50;3.10;99.90
53282;DHT22;39167;52.794;6.892;2023-04-03T07:46:16;2.90;99.90
53282;DHT22;39167;52.794;6.892;2023-04-03T07:48:43;2.20;99.90
53282;DHT22;39167;52.794;6.892;2023-04-03T07:51:09;3.00;99.90
53282;DHT22;39167;52.794;6.892;2023-04-03T07:53:36;2.30;99.90
53282;DHT22;39167;52.794;6.892;2023-04-03T07:56:01;3.10;99.90
53282;DHT22;39167;52.794;6.892;2023-04-03T07:58:28;3.30;99.90
53282;DHT22;39167;52.794;6.892;2023-04-03T08:00:54;2.50;99.90
53282;DHT22;39167;52.794;6.892;2023-04-03T08:03:19;3.50;99.90
53282;DHT22;39167;52.794;6.892;2023-04-03T08:05:47;2.60;99.90
53282;DHT22;39167;52.794;6.892;2023-04-03T08:08:16;2.70;99.90
53282;DHT22;39167;52.794;6.892;2023-04-03T08:10:43;2.80;99.90
53282;DHT22;39167;52.794;6.892;2023-04-03T08:13:09;2.80;99.90
53282;DHT22;39167;52.794;6.892;2023-04-03T08:15:36;3.40;99.90
53282;DHT22;39167;52.794;6.892;2023-04-03T08:18:02;3.00;99.90
53282;DHT22;39167;52.794;6.892;2023-04-03T08:20:29;3.00;99.90
53282;DHT22;39167;52.794;6.892;2023-04-03T08:22:54;3.90;99.90
53282;DHT22;39167;52.794;6.892;2023-04-03T08:25:21;3.10;99.90
53282;DHT22;39167;52.794;6.892;2023-04-03T08:27:46;4.30;99.90
53282;DHT22;39167;52.794;6.892;2023-04-03T08:30:13;3.30;99.90
53282;DHT22;39167;52.794;6.892;2023-04-03T08:32:39;3.40;99.90
53282;DHT22;39167;52.794;6.892;2023-04-03T08:35:07;4.10;99.90
53282;DHT22;39167;52.794;6.892;2023-04-03T08:37:36;3.60;99.90
53282;DHT22;39167;52.794;6.892;2023-04-03T08:40:04;3.70;99.90
53282;DHT22;39167;52.794;6.892;2023-04-03T08:42:51;3.80;99.90
53282;DHT22;39167;52.794;6.892;2023-04-03T08:45:28;3.90;99.90
53282;DHT22;39167;52.794;6.892;2023-04-03T08:48:05;3.90;99.90
53282;DHT22;39167;52.794;6.892;2023-04-03T08:51:00;4.10;99.90
53282;DHT22;39167;52.794;6.892;2023-04-03T08:53:30;4.20;99.90
53282;DHT22;39167;52.794;6.892;2023-04-03T08:55:58;4.40;99.90
53282;DHT22;39167;52.794;6.892;2023-04-03T08:58:30;4.50;99.90
53282;DHT22;39167;52.794;6.892;2023-04-03T09:01:33;4.60;99.90
53282;DHT22;39167;52.794;6.892;2023-04-03T09:04:01;4.70;99.90
53282;DHT22;39167;52.794;6.892;2023-04-03T09:06:29;4.70;99.90
53282;DHT22;39167;52.794;6.892;2023-04-03T09:11:47;4.90;99.90
53282;DHT22;39167;52.794;6.892;2023-04-03T09:16:58;5.10;99.90
53282;DHT22;39167;52.794;6.892;2023-04-03T09:22:13;5.30;99.90
53282;DHT22;39167;52.794;6.892;2023-04-03T09:24:41;4.40;99.90
53282;DHT22;39167;52.794;6.892;2023-04-03T09:27:10;5.40;99.90
53282;DHT22;39167;52.794;6.892;2023-04-03T09:29:40;5.50;99.90
53282;DHT22;39167;52.794;6.892;2023-04-03T09:32:25;5.60;99.90
53282;DHT22;39167;52.794;6.892;2023-04-03T09:34:53;5.70;99.90
53282;DHT22;39167;52.794;6.892;2023-04-03T09:37:47;5.80;99.90
53282;DHT22;39167;52.794;6.892;2023-04-03T09:42:55;5.70;99.90
53282;DHT22;39167;52.794;6.892;2023-04-03T09:45:33;6.10;99.90
53282;DHT22;39167;52.794;6.892;2023-04-03T09:48:12;6.40;99.90
53282;DHT22;39167;52.794;6.892;2023-04-03T09:56:00;6.50;99.90
53282;DHT22;39167;52.794;6.892;2023-04-03T09:58:36;6.60;99.90
53282;DHT22;39167;52.794;6.892;2023-04-03T10:01:03;6.60;99.90
53282;DHT22;39167;52.794;6.892;2023-04-03T10:03:35;6.70;99.90
53282;DHT22;39167;52.794;6.892;2023-04-03T10:06:22;6.70;99.90
53282;DHT22;39167;52.794;6.892;2023-04-03T10:09:06;7.00;99.90
53282;DHT22;39167;52.794;6.892;2023-04-03T10:11:32;7.00;99.90
53282;DHT22;39167;52.794;6.892;2023-04-03T10:14:02;7.10;99.90
53282;DHT22;39167;52.794;6.892;2023-04-03T10:16:38;7.10;99.90
53282;DHT22;39167;52.794;6.892;2023-04-03T10:19:16;7.20;99.90
53282;DHT22;39167;52.794;6.892;2023-04-03T10:22:36;7.20;99.90
53282;DHT22;39167;52.794;6.892;2023-04-03T10:27:48;7.40;99.90
53282;DHT22;39167;52.794;6.892;2023-04-03T10:30:21;7.40;99.90
53282;DHT22;39167;52.794;6.892;2023-04-03T10:33:22;7.40;99.90
53282;DHT22;39167;52.794;6.892;2023-04-03T10:36:10;7.50;99.90
53282;DHT22;39167;52.794;6.892;2023-04-03T10:44:49;7.70;99.90
53282;DHT22;39167;52.794;6.892;2023-04-03T10:47:24;7.80;99.90
53282;DHT22;39167;52.794;6.892;2023-04-03T10:55:19;8.00;99.90
53282;DHT22;39167;52.794;6.892;2023-04-03T10:57:49;8.00;99.90
53282;DHT22;39167;52.794;6.892;2023-04-03T11:00:23;8.10;99.90
53282;DHT22;39167;52.794;6.892;2023-04-03T11:02:55;8.10;99.90
53282;DHT22;39167;52.794;6.892;2023-04-03T11:05:41;8.20;99.90
53282;DHT22;39167;52.794;6.892;2023-04-03T11:08:19;8.20;99.90
53282;DHT22;39167;52.794;6.892;2023-04-03T11:10:50;8.30;99.90
53282;DHT22;39167;52.794;6.892;2023-04-03T11:13:37;8.40;99.90
53282;DHT22;39167;52.794;6.892;2023-04-03T11:16:06;8.50;99.90
53282;DHT22;39167;52.794;6.892;2023-04-03T11:18:46;7.80;99.90
53282;DHT22;39167;52.794;6.892;2023-04-03T11:21:36;8.00;99.90
53282;DHT22;39167;52.794;6.892;2023-04-03T11:24:04;8.70;99.90
53282;DHT22;39167;52.794;6.892;2023-04-03T11:26:38;8.80;99.90
53282;DHT22;39167;52.794;6.892;2023-04-03T11:29:13;8.80;99.90
53282;DHT22;39167;52.794;6.892;2023-04-03T11:31:57;8.90;99.90
53282;DHT22;39167;52.794;6.892;2023-04-03T11:34:39;9.00;99.90
53282;DHT22;39167;52.794;6.892;2023-04-03T11:39:58;9.10;99.90
53282;DHT22;39167;52.794;6.892;2023-04-03T11:42:34;9.20;99.90
53282;DHT22;39167;52.794;6.892;2023-04-03T11:47:51;9.20;99.90
53282;DHT22;39167;52.794;6.892;2023-04-03T11:50:48;9.30;99.90
53282;DHT22;39167;52.794;6.892;2023-04-03T12:01:56;9.60;99.90
53282;DHT22;39167;52.794;6.892;2023-04-03T12:04:25;9.70;99.90
53282;DHT22;39167;52.794;6.892;2023-04-03T12:07:00;9.70;99.90
53282;DHT22;39167;52.794;6.892;2023-04-03T12:12:38;9.70;99.90
53282;DHT22;39167;52.794;6.892;2023-04-03T12:15:25;9.70;99.90
53282;DHT22;39167;52.794;6.892;2023-04-03T12:17:51;9.70;99.90
53282;DHT22;39167;52.794;6.892;2023-04-03T12:20:51;9.70;99.90
53282;DHT22;39167;52.794;6.892;2023-04-03T12:23:35;10.20;99.90
53282;DHT22;39167;52.794;6.892;2023-04-03T12:40:06;10.10;99.90
53282;DHT22;39167;52.794;6.892;2023-04-03T12:46:04;10.20;99.90
53282;DHT22;39167;52.794;6.892;2023-04-03T12:51:16;10.30;99.90
53282;DHT22;39167;52.794;6.892;2023-04-03T12:53:44;10.40;99.90
53282;DHT22;39167;52.794;6.892;2023-04-03T12:59:12;10.40;99.90
53282;DHT22;39167;52.794;6.892;2023-04-03T13:01:38;10.20;99.90
53282;DHT22;39167;52.794;6.892;2023-04-03T13:04:04;10.50;99.90
53282;DHT22;39167;52.794;6.892;2023-04-03T13:06:36;10.50;99.90
53282;DHT22;39167;52.794;6.892;2023-04-03T13:09:03;10.50;99.90
53282;DHT22;39167;52.794;6.892;2023-04-03T13:11:38;10.60;99.90
53282;DHT22;39167;52.794;6.892;2023-04-03T13:14:19;10.60;99.90
53282;DHT22;39167;52.794;6.892;2023-04-03T13:16:56;10.60;99.90
53282;DHT22;39167;52.794;6.892;2023-04-03T13:19:24;10.70;99.90
53282;DHT22;39167;52.794;6.892;2023-04-03T13:22:02;10.70;99.90
53282;DHT22;39167;52.794;6.892;2023-04-03T13:24:32;10.70;99.90
53282;DHT22;39167;52.794;6.892;2023-04-03T13:26:59;10.70;99.90
53282;DHT22;39167;52.794;6.892;2023-04-03T13:29:31;10.60;99.90
53282;DHT22;39167;52.794;6.892;2023-04-03T13:31:58;10.70;99.90
53282;DHT22;39167;52.794;6.892;2023-04-03T13:34:27;10.80;99.90
53282;DHT22;39167;52.794;6.892;2023-04-03T13:39:38;10.90;99.90
53282;DHT22;39167;52.794;6.892;2023-04-03T13:42:28;10.90;99.90
53282;DHT22;39167;52.794;6.892;2023-04-03T13:45:21;10.90;99.60
53282;DHT22;39167;52.794;6.892;2023-04-03T13:47:50;10.80;99.90
53282;DHT22;39167;52.794;6.892;2023-04-03T13:50:22;11.00;99.90
53282;DHT22;39167;52.794;6.892;2023-04-03T13:53:02;11.00;99.90
53282;DHT22;39167;52.794;6.892;2023-04-03T13:55:31;11.10;99.90
53282;DHT22;39167;52.794;6.892;2023-04-03T13:58:16;11.10;99.90
53282;DHT22;39167;52.794;6.892;2023-04-03T14:00:51;11.10;99.40
53282;DHT22;39167;52.794;6.892;2023-04-03T14:03:29;11.10;99.60
53282;DHT22;39167;52.794;6.892;2023-04-03T14:05:55;11.00;99.10
53282;DHT22;39167;52.794;6.892;2023-04-03T14:08:21;10.90;99.30
53282;DHT22;39167;52.794;6.892;2023-04-03T14:10:47;10.90;99.50
53282;DHT22;39167;52.794;6.892;2023-04-03T14:13:17;10.90;99.60
53282;DHT22;39167;52.794;6.892;2023-04-03T14:15:45;10.90;99.50
53282;DHT22;39167;52.794;6.892;2023-04-03T14:18:19;10.80;99.90
53282;DHT22;39167;52.794;6.892;2023-04-03T14:20:47;11.00;99.20
53282;DHT22;39167;52.794;6.892;2023-04-03T14:23:13;10.90;99.30
53282;DHT22;39167;52.794;6.892;2023-04-03T14:25:40;11.00;99.20
53282;DHT22;39167;52.794;6.892;2023-04-03T14:28:18;11.00;99.20
53282;DHT22;39167;52.794;6.892;2023-04-03T14:30:45;11.00;98.90
53282;DHT22;39167;52.794;6.892;2023-04-03T14:33:15;11.00;98.90
53282;DHT22;39167;52.794;6.892;2023-04-03T14:35:42;11.10;98.70
53282;DHT22;39167;52.794;6.892;2023-04-03T14:38:24;11.00;98.40
53282;DHT22;39167;52.794;6.892;2023-04-03T14:40:51;11.10;97.70
53282;DHT22;39167;52.794;6.892;2023-04-03T14:43:17;11.00;98.60
53282;DHT22;39167;52.794;6.892;2023-04-03T14:45:44;11.00;98.40
53282;DHT22;39167;52.794;6.892;2023-04-03T14:48:17;11.00;98.20
53282;DHT22;39167;52.794;6.892;2023-04-03T14:50:43;11.00;98.10
53282;DHT22;39167;52.794;6.892;2023-04-03T14:53:11;11.00;98.30
53282;DHT22;39167;52.794;6.892;2023-04-03T14:55:38;11.00;98.20
53282;DHT22;39167;52.794;6.892;2023-04-03T14:58:04;11.00;98.00
53282;DHT22;39167;52.794;6.892;2023-04-03T15:00:30;11.00;98.20
53282;DHT22;39167;52.794;6.892;2023-04-03T15:02:55;11.00;98.10
53282;DHT22;39167;52.794;6.892;2023-04-03T15:05:21;11.00;97.90
53282;DHT22;39167;52.794;6.892;2023-04-03T15:07:50;11.00;97.80
53282;DHT22;39167;52.794;6.892;2023-04-03T15:10:26;11.00;97.60
53282;DHT22;39167;52.794;6.892;2023-04-03T15:12:55;11.00;97.40
53282;DHT22;39167;52.794;6.892;2023-04-03T15:15:23;11.10;97.40
53282;DHT22;39167;52.794;6.892;2023-04-03T15:17:54;11.00;97.00
53282;DHT22;39167;52.794;6.892;2023-04-03T15:20:23;11.00;97.00
53282;DHT22;39167;52.794;6.892;2023-04-03T15:22:49;11.00;96.80
53282;DHT22;39167;52.794;6.892;2023-04-03T15:25:15;11.00;96.90
53282;DHT22;39167;52.794;6.892;2023-04-03T15:27:41;11.00;97.20
53282;DHT22;39167;52.794;6.892;2023-04-03T15:30:11;11.00;97.00
53282;DHT22;39167;52.794;6.892;2023-04-03T15:32:38;10.90;96.40
53282;DHT22;39167;52.794;6.892;2023-04-03T15:35:04;10.90;96.40
53282;DHT22;39167;52.794;6.892;2023-04-03T15:37:30;10.90;96.60
53282;DHT22;39167;52.794;6.892;2023-04-03T15:39:56;10.90;96.80
53282;DHT22;39167;52.794;6.892;2023-04-03T15:42:22;10.90;96.60
53282;DHT22;39167;52.794;6.892;2023-04-03T15:44:47;10.80;96.50
53282;DHT22;39167;52.794;6.892;2023-04-03T15:47:13;10.80;96.50
53282;DHT22;39167;52.794;6.892;2023-04-03T15:49:39;10.80;96.40
53282;DHT22;39167;52.794;6.892;2023-04-03T15:52:05;10.80;96.40
53282;DHT22;39167;52.794;6.892;2023-04-03T15:54:31;10.70;96.10
53282;DHT22;39167;52.794;6.892;2023-04-03T15:56:57;10.70;96.00
53282;DHT22;39167;52.794;6.892;2023-04-03T15:59:23;10.70;95.90
53282;DHT22;39167;52.794;6.892;2023-04-03T16:01:50;10.70;96.10
53282;DHT22;39167;52.794;6.892;2023-04-03T16:04:17;10.70;96.30
53282;DHT22;39167;52.794;6.892;2023-04-03T16:06:43;10.70;96.40
53282;DHT22;39167;52.794;6.892;2023-04-03T16:09:09;10.60;96.60
53282;DHT22;39167;52.794;6.892;2023-04-03T16:11:35;10.60;96.30
53282;DHT22;39167;52.794;6.892;2023-04-03T16:14:05;10.60;95.80
53282;DHT22;39167;52.794;6.892;2023-04-03T16:16:31;10.60;95.80
53282;DHT22;39167;52.794;6.892;2023-04-03T16:18:57;10.50;95.90
53282;DHT22;39167;52.794;6.892;2023-04-03T16:21:23;10.50;95.90
53282;DHT22;39167;52.794;6.892;2023-04-03T16:23:49;10.40;95.70
53282;DHT22;39167;52.794;6.892;2023-04-03T16:26:15;10.40;95.90
53282;DHT22;39167;52.794;6.892;2023-04-03T16:28:43;10.40;95.90
53282;DHT22;39167;52.794;6.892;2023-04-03T16:31:09;10.40;96.40
53282;DHT22;39167;52.794;6.892;2023-04-03T16:33:35;10.30;96.40
53282;DHT22;39167;52.794;6.892;2023-04-03T16:36:04;10.30;96.50
53282;DHT22;39167;52.794;6.892;2023-04-03T16:38:30;10.30;96.40
53282;DHT22;39167;52.794;6.892;2023-04-03T16:40:57;10.30;96.40
53282;DHT22;39167;52.794;6.892;2023-04-03T16:43:25;10.20;96.50
53282;DHT22;39167;52.794;6.892;2023-04-03T16:45:51;10.70;96.40
53282;DHT22;39167;52.794;6.892;2023-04-03T16:48:17;10.10;96.20
53282;DHT22;39167;52.794;6.892;2023-04-03T16:50:46;10.00;96.00
53282;DHT22;39167;52.794;6.892;2023-04-03T16:53:14;10.00;96.20
53282;DHT22;39167;52.794;6.892;2023-04-03T16:55:39;10.00;96.40
53282;DHT22;39167;52.794;6.892;2023-04-03T16:58:05;9.90;96.30
53282;DHT22;39167;52.794;6.892;2023-04-03T17:00:32;9.90;96.20
53282;DHT22;39167;52.794;6.892;2023-04-03T17:02:59;9.80;96.30
53282;DHT22;39167;52.794;6.892;2023-04-03T17:05:25;9.80;96.50
53282;DHT22;39167;52.794;6.892;2023-04-03T17:07:51;9.80;96.50
53282;DHT22;39167;52.794;6.892;2023-04-03T17:10:16;9.70;97.10
53282;DHT22;39167;52.794;6.892;2023-04-03T17:12:42;9.70;97.10
53282;DHT22;39167;52.794;6.892;2023-04-03T17:15:08;9.60;97.00